New Hampton, IA

7:45 AM CST on February 12, 2016 (GMT -0600)
Charles City Municipal | | Change Station
CLOSE
Current Station
Airport
Location: Charles City,
Elevation: 1125 ft
Nearby Weather Stations
Active Advisory: Wind Chill Advisory

Elev 1125 ft 43.07 °N, 92.61 °W | Updated 10 minutes ago

Overcast
Overcast
14 °F
Feels Like -1 °F
N
15
Wind Variable Wind from NW

Today
High -- | Low -- °F
--% Chance of Precip.
Yesterday
High -- | Low -- °F
Precip. -- in
Pressure 30.27 in
Visibility 9.0 miles
Clouds Scattered Clouds 700 ft
Mostly Cloudy 1100 ft
Overcast 1600 ft
Windchill -1 °F
Dew Point 10 °F
Humidity 86%
Rainfall 0.00 in
Snow Depth Not available.
7:11 AM 5:35 PM
Waxing Crescent, 20% visible
METAR KCCY 121335Z AUTO 32013KT 9SM -SN SCT007 BKN011 OVC016 M10/M12 A3027 RMK AO2
Pressure 30.27 in
Visibility 9.0 miles
Clouds Scattered Clouds 700 ft
Mostly Cloudy 1100 ft
Overcast 1600 ft
Windchill -1 °F
Dew Point 10 °F
Humidity 86%
Rainfall 0.00 in
Snow Depth Not available.
7:11 AM 5:35 PM
Waxing Crescent, 20% visible
METAR KCCY 121335Z AUTO 32013KT 9SM -SN SCT007 BKN011 OVC016 M10/M12 A3027 RMK AO2

10-Day Weather Forecast

Almanac

Astronomy

Feb. 12, 2016 Rise Set
Actual Time
Civil Twilight
Nautical Twilight
Astronomical Twilight
Moon
Length of Visible Light
Length of Day
Tomorrow will be .
, % of the Moon is Illuminated

Today's Extremes

State Highs State Lows

Community

WunderPhotos

Upload Photos

1,892,313 photos uploaded!

WunderBlog® & News

Nearby

Air Quality

  Air Quality AQ Index Pollutant
Not available.

Snow Depth

Station Depth Elevation

Earthquake Activity

City Distance Mag. Time & Date
Minimum magnitude displayed is 2.5.

Coastal Water Temperatures

Place Temperature

Stations

Nearby Weather Stations

Station Location Temp. Windchill Dew Point Humidity Wind Precip. Elev Updated Type
                   

Watches & Warnings

Wind Chill Advisory
Issued: 3:09 AM CST Feb. 12, 2016 – National Weather Service

... Wind Chill Advisory in effect from 6 PM this evening to 9 am
CST Saturday...

The National Weather Service in La Crosse has issued a Wind Chill
Advisory... which is in effect from 6 PM this evening to 9 am CST
Saturday.

* Expect wind chills to range from 20 to 30 below zero this
evening through mid morning Saturday... with the coldest wind
chills occurring between midnight and 9 am Saturday.

* These cold wind chills will cause frostbite in as little as 30
minutes to exposed skin.

Precautionary/preparedness actions...

A Wind Chill Advisory means that cold air and the wind will
combine to create low wind chills. Frost bite and hypothermia can
occur if precautions are not taken. Make sure you wear a hat and
gloves.


Lawrence